Time;durP1;ratioP1;P1;durP2;ratioP2;P2;SDS_P1;SDS_P2;PMS_P1;PMS_P2;Temp;Humidity;BMP_temperature;BMP_pressure;BME280_temperature;BME280_humidity;BME280_pressure;Samples;Min_cycle;Max_cycle;Signal;HPM_P1;HPM_P2
2022/10/29 00:02:56;;;;;;;11.37;6.80;;;16.60;1.00;;;;;;6385340;27;20223;-54
2022/10/29 00:06:01;;;;;;;10.80;6.60;;;16.60;1.00;;;;;;6366808;27;20227;-54
2022/10/29 00:09:05;;;;;;;12.37;5.90;;;16.60;1.00;;;;;;6383903;27;20229;-54
2022/10/29 00:12:09;;;;;;;13.47;6.50;;;16.60;1.00;;;;;;6382457;27;20621;-53
2022/10/29 00:15:12;;;;;;;15.43;5.97;;;16.60;1.00;;;;;;6387520;27;20234;-54
2022/10/29 00:18:15;;;;;;;10.10;5.87;;;16.60;1.00;;;;;;6386736;27;20230;-54
2022/10/29 00:21:21;;;;;;;17.87;6.10;;;16.60;1.00;;;;;;6382409;27;20231;-54
2022/10/29 00:24:24;;;;;;;14.40;6.37;;;16.60;1.00;;;;;;6361722;27;20227;-55
2022/10/29 00:27:28;;;;;;;13.07;8.37;;;16.60;1.00;;;;;;6361188;27;20242;-54
2022/10/29 00:30:31;;;;;;;12.77;7.00;;;16.70;1.00;;;;;;6382859;27;20507;-53
2022/10/29 00:33:34;;;;;;;11.80;6.73;;;16.70;1.00;;;;;;6385152;27;20226;-54
2022/10/29 00:36:37;;;;;;;8.90;5.87;;;16.70;1.00;;;;;;6385661;27;20446;-54
2022/10/29 00:39:40;;;;;;;14.47;6.30;;;16.60;1.00;;;;;;6367481;27;20222;-55
2022/10/29 00:42:44;;;;;;;11.50;6.03;;;16.60;1.00;;;;;;6386520;27;20227;-54
2022/10/29 00:45:57;;;;;;;18.67;6.60;;;16.60;1.00;;;;;;6387438;27;20226;-54
2022/10/29 00:49:01;;;;;;;12.30;6.23;;;16.70;1.00;;;;;;6363465;27;20243;-53
2022/10/29 00:52:06;;;;;;;15.33;6.83;;;16.70;1.00;;;;;;6360201;27;20236;-54
2022/10/29 00:55:14;;;;;;;11.30;6.17;;;16.80;1.00;;;;;;6361026;27;20235;-54
2022/10/29 00:58:19;;;;;;;15.23;6.10;;;16.80;1.00;;;;;;6375464;27;20227;-57
2022/10/29 01:01:23;;;;;;;14.23;6.33;;;16.90;1.00;;;;;;6385829;27;20226;-55
2022/10/29 01:04:27;;;;;;;14.70;6.03;;;16.90;1.00;;;;;;6376612;27;20906;-54
2022/10/29 01:07:46;;;;;;;13.80;6.07;;;17.00;1.00;;;;;;6378861;27;20226;-54
2022/10/29 01:10:59;;;;;;;14.00;6.30;;;16.90;1.00;;;;;;6378766;27;20412;-54
2022/10/29 01:14:15;;;;;;;13.97;6.57;;;16.90;1.00;;;;;;6385551;27;20231;-56
2022/10/29 01:17:28;;;;;;;12.77;6.93;;;16.90;1.00;;;;;;6366983;27;20264;-56
2022/10/29 01:20:57;;;;;;;16.37;6.30;;;17.00;1.00;;;;;;6359409;28;20243;-55
2022/10/29 01:24:26;;;;;;;14.27;6.23;;;17.00;1.00;;;;;;6359279;27;20246;-53
2022/10/29 01:27:59;;;;;;;11.60;6.60;;;16.90;1.00;;;;;;6359802;28;20226;-56
2022/10/29 01:31:19;;;;;;;13.17;7.00;;;16.80;1.00;;;;;;6353807;27;20486;-55
2022/10/29 01:34:28;;;;;;;15.03;6.70;;;16.80;1.00;;;;;;6382520;27;20233;-53
2022/10/29 01:37:36;;;;;;;13.80;6.93;;;16.80;1.00;;;;;;6378794;27;20399;-53
2022/10/29 01:40:49;;;;;;;16.87;6.17;;;16.70;1.00;;;;;;6381013;27;20237;-53
2022/10/29 01:43:58;;;;;;;13.60;6.70;;;16.70;1.00;;;;;;6395486;27;20242;-54
2022/10/29 01:47:04;;;;;;;16.27;6.70;;;16.70;1.00;;;;;;6369264;27;20291;-53
2022/10/29 01:50:12;;;;;;;9.70;6.63;;;16.60;1.00;;;;;;6365905;27;20227;-54
2022/10/29 01:53:15;;;;;;;15.50;7.20;;;16.60;1.00;;;;;;6366322;27;20739;-54
2022/10/29 01:56:18;;;;;;;9.57;6.43;;;16.50;1.00;;;;;;6369454;27;20223;-57
2022/10/29 01:59:24;;;;;;;7.90;6.20;;;16.50;1.00;;;;;;6390536;27;20404;-53
2022/10/29 02:03:00;;;;;;;12.67;7.07;;;16.50;1.00;;;;;;6374579;27;20235;-54
2022/10/29 02:06:10;;;;;;;14.10;6.43;;;16.40;1.00;;;;;;6366126;27;20613;-54
2022/10/29 02:09:18;;;;;;;13.00;6.30;;;16.40;1.00;;;;;;6389965;27;20226;-55
2022/10/29 02:12:25;;;;;;;9.53;6.63;;;16.40;1.00;;;;;;6385913;27;20258;-60
2022/10/29 02:15:33;;;;;;;13.57;6.77;;;16.40;1.00;;;;;;6391424;27;20283;-55
2022/10/29 02:18:42;;;;;;;12.97;7.30;;;16.40;1.00;;;;;;6390879;27;20239;-55
2022/10/29 02:21:45;;;;;;;16.10;6.87;;;16.30;1.00;;;;;;6390026;27;20230;-60
2022/10/29 02:24:47;;;;;;;18.00;8.37;;;16.30;1.00;;;;;;6390711;27;20230;-54
2022/10/29 02:27:50;;;;;;;11.10;7.23;;;16.30;1.00;;;;;;6390551;27;20616;-54
2022/10/29 02:30:56;;;;;;;10.90;7.37;;;16.30;1.00;;;;;;6366069;27;20385;-54
2022/10/29 02:34:00;;;;;;;12.57;7.17;;;16.20;1.00;;;;;;6384215;27;20687;-54
2022/10/29 02:37:03;;;;;;;10.30;6.87;;;16.30;1.00;;;;;;6381246;27;20231;-54
2022/10/29 02:40:07;;;;;;;12.77;7.63;;;16.20;1.00;;;;;;6384434;27;20226;-53
2022/10/29 02:43:10;;;;;;;13.00;7.50;;;16.20;1.00;;;;;;6390697;27;20245;-55
2022/10/29 02:46:15;;;;;;;16.47;7.73;;;16.20;1.00;;;;;;6390544;27;20423;-54
2022/10/29 02:49:19;;;;;;;14.57;7.80;;;16.20;1.00;;;;;;6374848;27;20227;-53
2022/10/29 02:52:26;;;;;;;14.23;7.50;;;16.20;1.00;;;;;;6364148;27;20246;-54
2022/10/29 02:55:28;;;;;;;15.73;7.37;;;16.20;1.00;;;;;;6363463;27;20234;-54
2022/10/29 02:58:32;;;;;;;10.63;7.40;;;16.20;1.00;;;;;;6371469;27;20226;-56
2022/10/29 03:01:35;;;;;;;17.73;7.80;;;16.10;1.00;;;;;;6364091;27;20242;-53
2022/10/29 03:04:40;;;;;;;13.43;7.87;;;16.10;1.00;;;;;;6364002;27;20287;-54
2022/10/29 03:07:43;;;;;;;10.53;7.63;;;16.10;1.00;;;;;;6374681;27;20703;-54
2022/10/29 03:10:46;;;;;;;12.53;7.70;;;16.10;1.00;;;;;;6389494;27;20237;-54
2022/10/29 03:13:48;;;;;;;15.97;7.60;;;16.10;1.00;;;;;;6389372;27;20250;-55
2022/10/29 03:16:51;;;;;;;20.10;8.17;;;16.10;1.00;;;;;;6374189;27;20239;-54
2022/10/29 03:19:56;;;;;;;11.63;6.93;;;16.10;1.00;;;;;;6363107;27;20239;-55
2022/10/29 03:22:58;;;;;;;13.50;8.20;;;16.10;1.00;;;;;;6362532;27;20246;-54
2022/10/29 03:26:02;;;;;;;14.13;6.83;;;16.00;1.00;;;;;;6382900;27;20226;-54
2022/10/29 03:29:05;;;;;;;13.33;7.23;;;16.00;1.00;;;;;;6388297;27;20245;-54
2022/10/29 03:32:09;;;;;;;13.57;8.13;;;16.00;1.00;;;;;;6366055;27;20242;-54
2022/10/29 03:35:15;;;;;;;12.43;7.30;;;16.00;1.00;;;;;;6380852;27;20229;-54
2022/10/29 03:38:18;;;;;;;15.63;8.83;;;15.90;1.00;;;;;;6381583;27;20612;-53
2022/10/29 03:41:21;;;;;;;7.80;6.57;;;15.90;1.00;;;;;;6385781;27;20230;-54
2022/10/29 03:44:24;;;;;;;20.27;8.67;;;15.90;1.00;;;;;;6386264;27;20237;-54
2022/10/29 03:47:26;;;;;;;13.00;7.87;;;15.80;1.00;;;;;;6377716;27;20706;-54
2022/10/29 03:50:31;;;;;;;14.03;8.10;;;15.80;1.00;;;;;;6381505;27;20401;-54
2022/10/29 03:53:35;;;;;;;15.87;8.50;;;15.80;1.00;;;;;;6377799;27;20317;-54
2022/10/29 03:56:41;;;;;;;15.37;8.20;;;15.70;1.00;;;;;;6372889;27;20226;-55
2022/10/29 03:59:44;;;;;;;16.70;7.87;;;15.80;1.00;;;;;;6386303;27;20227;-54
2022/10/29 04:02:53;;;;;;;14.70;8.20;;;15.80;1.00;;;;;;6386777;27;20403;-54
2022/10/29 04:05:59;;;;;;;15.60;8.70;;;15.80;1.00;;;;;;6384014;27;20780;-54
2022/10/29 04:09:09;;;;;;;13.07;7.93;;;15.70;1.00;;;;;;6383010;27;20234;-54
2022/10/29 04:12:12;;;;;;;17.00;8.43;;;15.70;1.00;;;;;;6383146;27;20802;-54
2022/10/29 04:15:15;;;;;;;20.07;8.50;;;15.70;1.00;;;;;;6387947;27;20234;-53
2022/10/29 04:18:19;;;;;;;11.50;8.23;;;15.60;1.00;;;;;;6386607;27;20230;-54
2022/10/29 04:21:24;;;;;;;16.87;7.53;;;15.60;1.00;;;;;;6385072;27;20226;-54
2022/10/29 04:24:47;;;;;;;17.47;9.27;;;15.60;1.00;;;;;;6379925;27;20604;-54
2022/10/29 04:28:10;;;;;;;9.83;8.10;;;15.60;1.00;;;;;;6383719;27;20226;-54
2022/10/29 04:31:33;;;;;;;8.80;7.53;;;15.50;1.00;;;;;;6376089;27;20243;-54
2022/10/29 04:34:36;;;;;;;19.97;8.47;;;15.50;1.00;;;;;;6385906;27;20231;-54
2022/10/29 04:37:40;;;;;;;12.23;8.13;;;15.50;1.00;;;;;;6380434;27;20227;-54
2022/10/29 04:40:43;;;;;;;13.27;8.83;;;15.40;1.00;;;;;;6387002;27;20625;-53
2022/10/29 04:43:46;;;;;;;11.43;8.43;;;15.40;1.00;;;;;;6386549;27;20231;-55
2022/10/29 04:46:49;;;;;;;11.97;7.47;;;15.40;1.00;;;;;;6375301;27;20250;-55
2022/10/29 04:49:52;;;;;;;12.07;8.27;;;15.40;1.00;;;;;;6386427;27;20308;-54
2022/10/29 04:52:59;;;;;;;17.87;8.57;;;15.30;1.00;;;;;;6385161;27;20234;-54
2022/10/29 04:56:04;;;;;;;14.53;7.60;;;15.30;1.00;;;;;;6376971;27;20411;-56
2022/10/29 04:59:07;;;;;;;8.50;7.67;;;15.30;1.00;;;;;;6383273;27;20359;-55
2022/10/29 05:02:10;;;;;;;15.97;9.40;;;15.30;1.00;;;;;;6385917;27;20625;-54
2022/10/29 05:05:13;;;;;;;15.47;9.37;;;15.20;1.00;;;;;;6384595;27;20589;-54
2022/10/29 05:08:17;;;;;;;15.73;8.57;;;15.30;1.00;;;;;;6385141;27;20721;-55
2022/10/29 05:11:20;;;;;;;10.60;8.13;;;15.30;1.00;;;;;;6386090;27;20230;-54
2022/10/29 05:14:26;;;;;;;11.47;7.93;;;15.20;1.00;;;;;;6385898;27;20242;-53
2022/10/29 05:17:29;;;;;;;8.00;7.20;;;15.20;1.00;;;;;;6387344;27;20233;-54
2022/10/29 05:20:32;;;;;;;11.17;8.00;;;15.20;1.00;;;;;;6386657;27;20241;-54
2022/10/29 05:23:36;;;;;;;9.63;7.50;;;15.10;1.00;;;;;;6386718;27;20241;-54
2022/10/29 05:26:39;;;;;;;19.40;9.73;;;15.10;1.00;;;;;;6385401;27;20607;-54
2022/10/29 05:29:43;;;;;;;19.80;9.70;;;15.10;1.00;;;;;;6381237;27;20231;-54
2022/10/29 05:32:58;;;;;;;12.10;8.97;;;15.10;1.00;;;;;;6376607;27;20231;-54
2022/10/29 05:36:01;;;;;;;18.17;9.03;;;15.10;1.00;;;;;;6385764;27;20368;-54
2022/10/29 05:39:05;;;;;;;18.63;9.17;;;15.00;1.00;;;;;;6384230;27;20603;-54
2022/10/29 05:42:08;;;;;;;14.43;8.57;;;15.00;1.00;;;;;;6383352;27;20424;-54
2022/10/29 05:45:11;;;;;;;15.67;9.40;;;15.00;1.00;;;;;;6383227;27;20229;-53
2022/10/29 05:48:14;;;;;;;15.53;8.67;;;15.00;1.00;;;;;;6383478;27;20258;-53
2022/10/29 05:51:17;;;;;;;21.00;10.00;;;14.90;1.00;;;;;;6383446;27;20230;-54
2022/10/29 05:54:21;;;;;;;10.73;8.17;;;14.90;1.00;;;;;;6383109;27;20237;-54
2022/10/29 05:57:24;;;;;;;11.57;9.10;;;14.90;1.00;;;;;;6378133;27;20234;-53
2022/10/29 06:00:29;;;;;;;15.17;8.77;;;14.80;1.00;;;;;;6382103;27;20230;-53
2022/10/29 06:03:32;;;;;;;11.30;8.03;;;14.80;1.00;;;;;;6354427;27;20226;-54
2022/10/29 06:06:35;;;;;;;11.60;8.37;;;14.80;1.00;;;;;;6384776;27;20428;-53
2022/10/29 06:09:39;;;;;;;9.70;7.97;;;14.80;1.00;;;;;;6379002;27;20332;-58
2022/10/29 06:12:42;;;;;;;12.17;8.47;;;14.80;1.00;;;;;;6384158;27;20408;-53
2022/10/29 06:15:45;;;;;;;10.37;8.30;;;14.70;1.00;;;;;;6384379;27;20242;-54
2022/10/29 06:18:56;;;;;;;16.43;9.70;;;14.70;1.00;;;;;;6379612;27;20237;-54
2022/10/29 06:21:58;;;;;;;13.77;9.27;;;14.70;1.00;;;;;;6382151;27;20231;-55
2022/10/29 06:25:06;;;;;;;13.13;8.27;;;14.70;1.00;;;;;;6386903;27;20230;-54
2022/10/29 06:28:13;;;;;;;11.93;8.47;;;14.70;1.00;;;;;;6381110;27;20243;-54
2022/10/29 06:31:16;;;;;;;9.10;8.17;;;14.70;1.00;;;;;;6387559;27;20827;-53
2022/10/29 06:34:19;;;;;;;9.23;7.60;;;14.70;1.00;;;;;;6384668;27;20246;-54
2022/10/29 06:37:22;;;;;;;8.13;7.37;;;14.70;1.00;;;;;;6386015;27;20239;-54
2022/10/29 06:40:26;;;;;;;8.50;7.70;;;14.80;1.00;;;;;;6388447;27;20227;-54
2022/10/29 06:43:29;;;;;;;16.40;9.10;;;14.80;1.00;;;;;;6391699;27;20231;-53
2022/10/29 06:46:34;;;;;;;19.10;10.07;;;14.80;1.00;;;;;;6391340;27;20241;-54
2022/10/29 06:49:37;;;;;;;12.13;9.47;;;14.80;1.00;;;;;;6383744;27;20227;-54
2022/10/29 06:52:43;;;;;;;20.77;10.00;;;14.90;1.00;;;;;;6385311;27;20233;-54
2022/10/29 06:55:48;;;;;;;15.43;9.63;;;14.90;1.00;;;;;;6389904;27;20237;-54
2022/10/29 06:58:51;;;;;;;18.33;9.83;;;14.90;1.00;;;;;;6379330;27;20920;-54
2022/10/29 07:01:53;;;;;;;19.67;9.87;;;15.00;1.00;;;;;;6390439;27;20243;-54
2022/10/29 07:04:57;;;;;;;18.90;10.20;;;15.00;1.00;;;;;;6389339;27;20231;-56
2022/10/29 07:08:01;;;;;;;13.97;9.27;;;15.10;1.00;;;;;;6388014;27;20223;-54
2022/10/29 07:11:06;;;;;;;17.70;9.83;;;15.10;1.00;;;;;;6387866;27;20227;-54
2022/10/29 07:14:09;;;;;;;20.77;9.47;;;15.20;1.00;;;;;;6388115;27;20230;-54
2022/10/29 07:17:12;;;;;;;15.27;8.97;;;15.20;1.00;;;;;;6382309;27;20229;-55
2022/10/29 07:20:15;;;;;;;14.50;8.53;;;15.30;1.00;;;;;;6388103;27;20311;-54
2022/10/29 07:23:18;;;;;;;22.40;10.30;;;15.30;1.00;;;;;;6383956;27;20315;-54
2022/10/29 07:26:22;;;;;;;16.27;9.53;;;15.40;1.00;;;;;;6387827;27;20527;-54
2022/10/29 07:29:25;;;;;;;19.60;9.40;;;15.40;1.00;;;;;;6387777;27;20413;-55
2022/10/29 07:32:28;;;;;;;16.50;9.20;;;15.40;1.00;;;;;;6375136;27;20746;-54
2022/10/29 07:35:31;;;;;;;12.00;8.27;;;15.60;1.00;;;;;;6386283;27;20241;-54
2022/10/29 07:38:34;;;;;;;23.43;9.33;;;15.60;1.00;;;;;;6386290;27;20242;-54
2022/10/29 07:41:38;;;;;;;17.63;8.87;;;15.60;1.00;;;;;;6385302;27;20234;-53
2022/10/29 07:44:41;;;;;;;15.60;8.97;;;15.70;1.00;;;;;;6386964;27;20490;-53
2022/10/29 07:47:43;;;;;;;12.33;9.30;;;15.80;1.00;;;;;;6386492;27;20226;-55
2022/10/29 07:50:47;;;;;;;11.50;8.00;;;15.90;1.00;;;;;;6384017;27;20257;-55
2022/10/29 07:53:50;;;;;;;13.20;9.40;;;15.90;1.00;;;;;;6386352;27;20442;-54
2022/10/29 07:56:54;;;;;;;9.37;7.97;;;15.80;1.00;;;;;;6379140;27;20231;-54
2022/10/29 08:00:00;;;;;;;12.83;8.67;;;16.00;1.00;;;;;;6384054;27;20822;-53
2022/10/29 08:03:04;;;;;;;10.77;7.90;;;16.10;1.00;;;;;;6384809;27;20233;-54
2022/10/29 08:06:07;;;;;;;14.40;8.33;;;16.30;1.00;;;;;;6386416;27;20237;-57
2022/10/29 08:09:11;;;;;;;11.07;8.37;;;16.40;1.00;;;;;;6383366;27;20602;-54
2022/10/29 08:12:15;;;;;;;14.83;9.73;;;16.40;1.00;;;;;;6386305;27;20237;-58
2022/10/29 08:15:18;;;;;;;15.27;8.83;;;16.50;1.00;;;;;;6381052;27;20235;-54
2022/10/29 08:18:21;;;;;;;11.70;8.43;;;16.50;1.00;;;;;;6386327;27;20233;-54
2022/10/29 08:21:24;;;;;;;17.90;9.37;;;16.50;1.00;;;;;;6386750;27;20227;-54
2022/10/29 08:24:27;;;;;;;15.30;8.93;;;16.60;1.00;;;;;;6383408;27;20231;-53
2022/10/29 08:27:31;;;;;;;13.67;8.77;;;16.70;1.00;;;;;;6383594;27;20227;-54
2022/10/29 08:30:35;;;;;;;14.93;9.20;;;16.70;1.00;;;;;;6386813;27;20803;-54
2022/10/29 08:33:38;;;;;;;18.63;9.77;;;16.70;1.00;;;;;;6378473;27;20246;-54
2022/10/29 08:36:41;;;;;;;19.43;8.60;;;16.80;1.00;;;;;;6386171;27;20400;-54
2022/10/29 08:39:45;;;;;;;11.63;8.47;;;16.90;1.00;;;;;;6380540;27;20318;-55
2022/10/29 08:43:07;;;;;;;11.60;7.60;;;17.00;1.00;;;;;;6380634;27;20241;-54
2022/10/29 08:46:18;;;;;;;19.73;8.50;;;17.10;1.00;;;;;;6384496;27;20219;-55
2022/10/29 08:49:24;;;;;;;16.17;8.03;;;17.30;1.00;;;;;;6380955;27;20703;-54
2022/10/29 08:52:29;;;;;;;15.30;7.97;;;17.40;1.00;;;;;;6384465;27;20239;-55
2022/10/29 08:55:36;;;;;;;15.40;7.80;;;17.50;1.00;;;;;;6384158;27;20453;-54
2022/10/29 08:58:50;;;;;;;13.90;8.23;;;17.60;1.00;;;;;;6374807;27;20226;-54
2022/10/29 09:01:53;;;;;;;21.63;9.17;;;17.70;1.00;;;;;;6383564;27;20818;-55
2022/10/29 09:04:57;;;;;;;14.47;9.63;;;17.90;1.00;;;;;;6385894;27;20775;-55
2022/10/29 09:08:16;;;;;;;15.33;8.93;;;17.90;1.00;;;;;;6383420;27;20234;-54
2022/10/29 09:11:33;;;;;;;18.20;10.67;;;17.90;1.00;;;;;;6384709;27;20227;-55
2022/10/29 09:14:51;;;;;;;11.27;9.10;;;18.00;1.00;;;;;;6384144;27;20247;-54
2022/10/29 09:18:28;;;;;;;15.77;9.17;;;18.10;1.00;;;;;;6385339;27;20234;-56
2022/10/29 09:21:35;;;;;;;15.37;9.50;;;18.10;1.00;;;;;;6375906;27;20477;-54
2022/10/29 09:24:45;;;;;;;16.17;9.23;;;18.20;1.00;;;;;;6384611;27;20234;-54
2022/10/29 09:28:00;;;;;;;9.87;8.30;;;18.40;1.00;;;;;;6383962;27;20235;-54
2022/10/29 09:31:16;;;;;;;15.93;8.03;;;18.50;1.00;;;;;;6381183;27;20334;-55
2022/10/29 09:34:25;;;;;;;10.70;7.73;;;18.50;1.00;;;;;;6380890;27;20227;-54
2022/10/29 09:37:38;;;;;;;15.53;8.67;;;18.60;1.00;;;;;;6383785;27;20504;-54
2022/10/29 09:40:43;;;;;;;17.70;8.30;;;18.70;1.00;;;;;;6378289;27;20229;-57
2022/10/29 09:43:51;;;;;;;21.73;8.30;;;18.90;1.00;;;;;;6383679;27;20230;-54
2022/10/29 09:47:12;;;;;;;18.03;7.63;;;19.00;1.00;;;;;;6383763;27;20622;-54
2022/10/29 09:50:24;;;;;;;12.30;6.90;;;19.10;1.00;;;;;;6381944;27;20231;-54
2022/10/29 09:53:27;;;;;;;12.97;7.57;;;19.20;1.00;;;;;;6384267;27;20726;-55
2022/10/29 09:56:30;;;;;;;16.63;7.90;;;19.40;1.00;;;;;;6375219;27;20358;-55
2022/10/29 09:59:38;;;;;;;10.93;7.40;;;19.40;1.00;;;;;;6387359;27;20765;-55
2022/10/29 10:02:48;;;;;;;14.87;10.00;;;19.40;1.00;;;;;;6377731;27;21222;-55
2022/10/29 10:05:59;;;;;;;11.37;7.20;;;19.30;1.00;;;;;;6388755;27;20686;-56
2022/10/29 10:09:04;;;;;;;17.20;8.17;;;19.30;1.00;;;;;;6387445;27;20577;-54
2022/10/29 10:12:07;;;;;;;14.40;7.70;;;19.20;1.00;;;;;;6386293;27;20243;-54
2022/10/29 10:15:19;;;;;;;12.93;7.03;;;19.30;1.00;;;;;;6388735;27;20734;-54
2022/10/29 10:18:26;;;;;;;13.70;8.10;;;19.20;1.00;;;;;;6388400;27;20246;-55
2022/10/29 10:21:31;;;;;;;16.87;7.40;;;19.20;1.00;;;;;;6380692;27;20368;-55
2022/10/29 10:24:35;;;;;;;23.27;8.20;;;19.20;1.00;;;;;;6389414;27;20648;-55
2022/10/29 10:27:38;;;;;;;12.87;8.17;;;19.20;1.00;;;;;;6359202;27;20227;-54
2022/10/29 10:30:42;;;;;;;13.90;7.70;;;19.10;1.00;;;;;;6380373;27;20230;-55
2022/10/29 10:33:51;;;;;;;11.23;8.10;;;19.30;1.00;;;;;;6387737;27;20298;-55
2022/10/29 10:36:56;;;;;;;14.03;8.27;;;19.30;1.00;;;;;;6388377;27;20238;-55
2022/10/29 10:40:04;;;;;;;10.03;6.97;;;19.30;1.00;;;;;;6387043;27;20749;-55
2022/10/29 10:43:17;;;;;;;16.03;7.33;;;19.40;1.00;;;;;;6384799;27;20238;-54
2022/10/29 10:46:25;;;;;;;11.73;6.83;;;19.50;1.00;;;;;;6388363;27;20226;-54
2022/10/29 10:49:35;;;;;;;17.20;7.80;;;19.60;1.00;;;;;;6385044;27;20904;-54
2022/10/29 10:52:38;;;;;;;10.60;6.97;;;19.60;1.00;;;;;;6382980;27;20245;-55
2022/10/29 10:55:47;;;;;;;14.37;7.57;;;19.60;1.00;;;;;;6387354;27;20242;-55
2022/10/29 10:58:57;;;;;;;9.93;7.03;;;19.60;1.00;;;;;;6381729;27;20419;-55
2022/10/29 11:02:01;;;;;;;14.67;7.80;;;19.80;1.00;;;;;;6387452;27;20231;-55
2022/10/29 11:05:14;;;;;;;13.60;6.70;;;19.80;1.00;;;;;;6388258;27;20307;-55
2022/10/29 11:08:20;;;;;;;16.27;7.83;;;19.90;1.00;;;;;;6385910;27;20321;-57
2022/10/29 11:11:28;;;;;;;16.23;7.07;;;19.90;1.00;;;;;;6386180;27;20382;-54
2022/10/29 11:14:41;;;;;;;8.87;7.23;;;20.00;1.00;;;;;;6387534;27;20239;-54
2022/10/29 11:17:53;;;;;;;14.77;7.60;;;20.10;1.00;;;;;;6353237;27;20250;-55
2022/10/29 11:21:12;;;;;;;15.83;7.27;;;20.10;1.00;;;;;;6387675;27;20226;-55
2022/10/29 11:24:20;;;;;;;14.07;6.97;;;20.20;1.00;;;;;;6383475;27;20231;-56
2022/10/29 11:27:31;;;;;;;14.27;7.03;;;20.30;1.00;;;;;;6386841;27;20695;-54
2022/10/29 11:30:43;;;;;;;11.63;7.23;;;20.50;1.00;;;;;;6387888;27;20365;-57
2022/10/29 11:33:56;;;;;;;12.97;7.33;;;20.50;1.00;;;;;;6379419;27;20237;-56
2022/10/29 11:37:07;;;;;;;12.13;7.03;;;20.40;1.00;;;;;;6386641;27;20237;-55
2022/10/29 11:40:14;;;;;;;16.37;6.73;;;20.30;1.00;;;;;;6383178;27;20234;-54
2022/10/29 11:43:20;;;;;;;7.83;5.77;;;20.20;1.00;;;;;;6386817;27;20223;-55
2022/10/29 11:46:32;;;;;;;12.07;7.27;;;20.10;1.00;;;;;;6384409;27;20239;-54
2022/10/29 11:49:48;;;;;;;8.57;6.27;;;20.10;1.00;;;;;;6376405;27;20237;-56
2022/10/29 11:53:02;;;;;;;13.77;7.10;;;20.20;1.00;;;;;;6391160;27;20261;-55
2022/10/29 11:56:12;;;;;;;9.43;6.90;;;20.10;1.00;;;;;;6383869;27;20245;-55
2022/10/29 11:59:27;;;;;;;13.87;6.97;;;20.10;1.00;;;;;;6386178;27;20691;-55
2022/10/29 12:02:46;;;;;;;15.00;7.50;;;20.20;1.00;;;;;;6386788;27;20628;-55
2022/10/29 12:05:57;;;;;;;9.17;6.40;;;20.30;1.00;;;;;;6381412;27;20259;-54
2022/10/29 12:09:27;;;;;;;13.17;7.40;;;20.20;1.00;;;;;;6384445;27;20607;-55
2022/10/29 12:12:39;;;;;;;13.87;8.00;;;20.20;1.00;;;;;;6370131;27;20496;-55
2022/10/29 12:15:46;;;;;;;11.43;7.53;;;20.30;1.00;;;;;;6386435;27;20238;-55
2022/10/29 12:18:54;;;;;;;18.83;7.70;;;20.30;1.00;;;;;;6386060;27;20271;-56
2022/10/29 12:22:03;;;;;;;7.27;6.57;;;20.40;1.00;;;;;;6385067;27;20397;-54
2022/10/29 12:25:24;;;;;;;11.47;7.17;;;20.50;1.00;;;;;;6383422;27;20219;-54
2022/10/29 12:28:45;;;;;;;12.67;7.00;;;20.60;1.00;;;;;;6386095;27;20231;-55
2022/10/29 12:31:56;;;;;;;12.47;6.63;;;20.70;1.00;;;;;;6376122;27;20234;-54
2022/10/29 12:35:06;;;;;;;12.77;7.80;;;20.70;1.00;;;;;;6381734;27;20247;-62
2022/10/29 12:38:24;;;;;;;11.27;7.10;;;20.70;1.00;;;;;;6384953;27;20239;-56
2022/10/29 12:41:34;;;;;;;10.67;7.80;;;20.70;1.00;;;;;;6385132;27;20238;-54
2022/10/29 12:44:44;;;;;;;14.37;7.83;;;20.60;1.00;;;;;;6378344;27;20605;-55
2022/10/29 12:47:51;;;;;;;14.40;6.90;;;20.60;1.00;;;;;;6385327;27;20241;-55
2022/10/29 12:51:03;;;;;;;10.87;6.80;;;20.50;1.00;;;;;;6385089;27;20234;-55
2022/10/29 12:54:25;;;;;;;12.27;6.70;;;20.50;1.00;;;;;;6376182;27;20235;-55
2022/10/29 12:57:32;;;;;;;10.37;7.43;;;20.50;1.00;;;;;;6381189;27;20231;-55
2022/10/29 13:00:49;;;;;;;15.37;7.20;;;20.60;1.00;;;;;;6377626;27;20480;-55
2022/10/29 13:04:02;;;;;;;11.47;7.60;;;20.60;1.00;;;;;;6381459;27;20231;-58
2022/10/29 13:07:22;;;;;;;8.07;6.73;;;20.70;1.00;;;;;;6382333;27;20595;-55
2022/10/29 13:10:50;;;;;;;14.33;9.80;;;20.80;1.00;;;;;;6385294;27;20231;-55
2022/10/29 13:13:58;;;;;;;13.47;8.33;;;20.80;1.00;;;;;;6381322;27;20230;-54
2022/10/29 13:17:04;;;;;;;13.33;8.03;;;20.80;1.00;;;;;;6384430;27;20711;-55
2022/10/29 13:20:19;;;;;;;10.27;8.43;;;20.80;1.00;;;;;;6379013;27;20231;-55
2022/10/29 13:23:33;;;;;;;11.87;6.97;;;20.80;1.00;;;;;;6384409;27;20231;-54
2022/10/29 13:26:54;;;;;;;16.57;8.50;;;20.80;1.00;;;;;;6383581;27;20433;-55
2022/10/29 13:30:24;;;;;;;15.27;7.73;;;20.90;1.00;;;;;;6376185;27;20223;-54
2022/10/29 13:33:51;;;;;;;13.63;7.90;;;20.80;1.00;;;;;;6378807;27;20230;-54
2022/10/29 13:37:14;;;;;;;14.40;8.13;;;20.70;1.00;;;;;;6359391;27;20245;-55
2022/10/29 13:40:50;;;;;;;16.03;7.80;;;20.70;1.00;;;;;;6388779;27;20239;-55
2022/10/29 13:43:57;;;;;;;13.80;7.57;;;20.70;1.00;;;;;;6367174;27;20231;-54
2022/10/29 13:47:05;;;;;;;15.07;8.60;;;20.70;1.00;;;;;;6387405;27;20294;-55
2022/10/29 13:50:08;;;;;;;10.93;7.70;;;20.60;1.00;;;;;;6389042;27;20635;-56
2022/10/29 13:53:17;;;;;;;14.17;8.27;;;20.60;1.00;;;;;;6388681;27;20249;-61
2022/10/29 13:56:34;;;;;;;12.30;7.43;;;20.70;1.00;;;;;;6378458;27;20708;-55
2022/10/29 13:59:41;;;;;;;16.77;8.83;;;20.70;1.00;;;;;;6388548;27;20723;-57
2022/10/29 14:02:54;;;;;;;16.77;8.73;;;20.60;1.00;;;;;;6388413;27;20239;-54
2022/10/29 14:06:08;;;;;;;10.27;7.63;;;20.50;1.00;;;;;;6387533;27;20608;-55
2022/10/29 14:09:19;;;;;;;12.23;8.30;;;20.50;1.00;;;;;;6389201;27;20230;-55
2022/10/29 14:12:28;;;;;;;7.47;6.37;;;20.40;1.00;;;;;;6388598;27;20404;-54
2022/10/29 14:15:31;;;;;;;8.07;7.27;;;20.40;1.00;;;;;;6385930;27;20242;-54
2022/10/29 14:18:38;;;;;;;14.87;8.70;;;20.40;1.00;;;;;;6388064;27;20362;-55
2022/10/29 14:21:51;;;;;;;12.63;7.50;;;20.40;1.00;;;;;;6379872;27;20241;-54
2022/10/29 14:24:57;;;;;;;12.47;8.80;;;20.30;1.00;;;;;;6388068;27;20235;-56
2022/10/29 14:28:24;;;;;;;14.47;8.40;;;20.20;1.00;;;;;;6387327;27;20222;-54
2022/10/29 14:31:27;;;;;;;13.33;9.13;;;20.10;1.00;;;;;;6361645;27;20369;-56
2022/10/29 14:34:32;;;;;;;20.23;10.67;;;20.00;1.00;;;;;;6387255;27;20235;-55
2022/10/29 14:37:39;;;;;;;15.67;9.10;;;20.00;1.00;;;;;;6384279;27;20238;-54
2022/10/29 14:40:44;;;;;;;12.93;8.50;;;19.90;1.00;;;;;;6388689;27;20234;-54
2022/10/29 14:43:54;;;;;;;11.60;8.80;;;19.80;1.00;;;;;;6383939;27;20615;-55
2022/10/29 14:47:05;;;;;;;11.23;8.40;;;19.80;1.00;;;;;;6387642;27;20240;-54
2022/10/29 14:50:17;;;;;;;13.47;9.37;;;19.70;1.00;;;;;;6388414;27;20231;-54
2022/10/29 14:53:28;;;;;;;15.60;8.33;;;19.70;1.00;;;;;;6373683;27;20320;-55
2022/10/29 14:56:34;;;;;;;16.77;9.97;;;19.60;1.00;;;;;;6387736;27;20230;-54
2022/10/29 14:59:37;;;;;;;15.40;9.53;;;19.60;1.00;;;;;;6385913;27;20230;-54
2022/10/29 15:02:42;;;;;;;16.70;9.33;;;19.60;1.00;;;;;;6380608;27;20235;-55
2022/10/29 15:05:48;;;;;;;25.03;10.47;;;19.60;1.00;;;;;;6382784;27;20238;-56
2022/10/29 15:08:55;;;;;;;15.07;8.53;;;19.60;1.00;;;;;;6386362;27;20425;-55
2022/10/29 15:12:06;;;;;;;14.67;8.87;;;19.50;1.00;;;;;;6376130;27;20816;-55
2022/10/29 15:15:11;;;;;;;11.93;8.57;;;19.50;1.00;;;;;;6384115;27;20214;-55
2022/10/29 15:18:19;;;;;;;14.17;10.57;;;19.50;1.00;;;;;;6385317;27;20654;-54
2022/10/29 15:21:25;;;;;;;21.17;12.67;;;19.50;1.00;;;;;;6385901;27;20237;-55
2022/10/29 15:24:28;;;;;;;16.63;13.40;;;19.30;1.00;;;;;;6386688;27;20386;-55
2022/10/29 15:27:31;;;;;;;21.37;13.73;;;19.30;1.00;;;;;;6386257;27;20233;-55
2022/10/29 15:30:36;;;;;;;21.23;13.20;;;19.30;1.00;;;;;;6378519;27;20361;-59
2022/10/29 15:33:39;;;;;;;15.17;11.37;;;19.20;1.00;;;;;;6376790;27;20735;-55
2022/10/29 15:36:48;;;;;;;17.13;11.50;;;19.20;1.00;;;;;;6386755;27;20234;-54
2022/10/29 15:40:07;;;;;;;11.00;9.80;;;19.10;1.00;;;;;;6381706;27;20488;-54
2022/10/29 15:43:28;;;;;;;17.87;11.13;;;19.00;1.00;;;;;;6383070;27;20223;-54
2022/10/29 15:46:43;;;;;;;23.53;12.17;;;18.90;1.00;;;;;;6385940;27;20219;-55
2022/10/29 15:49:46;;;;;;;21.47;14.93;;;18.80;1.00;;;;;;6379456;27;20223;-54
2022/10/29 15:53:04;;;;;;;21.10;14.30;;;18.70;1.00;;;;;;6386517;27;20242;-55
2022/10/29 15:56:12;;;;;;;25.13;13.67;;;18.70;1.00;;;;;;6383222;27;20597;-54
2022/10/29 15:59:18;;;;;;;27.90;17.00;;;18.70;1.00;;;;;;6386722;27;20238;-54
2022/10/29 16:02:20;;;;;;;19.33;15.07;;;18.60;1.00;;;;;;6386759;27;20231;-55
2022/10/29 16:05:24;;;;;;;20.87;12.90;;;18.60;1.00;;;;;;6384175;27;20262;-55
2022/10/29 16:08:31;;;;;;;19.73;12.57;;;18.60;1.00;;;;;;6384951;27;20238;-55
2022/10/29 16:11:34;;;;;;;19.53;11.17;;;18.50;1.00;;;;;;6383111;27;20243;-55
2022/10/29 16:14:37;;;;;;;10.33;9.20;;;18.50;1.00;;;;;;6377917;27;20249;-54
2022/10/29 16:17:40;;;;;;;10.77;9.03;;;18.50;1.00;;;;;;6384854;27;20242;-54
2022/10/29 16:20:43;;;;;;;12.73;8.83;;;18.40;1.00;;;;;;6382712;27;20227;-55